Time;durP1;ratioP1;P1;durP2;ratioP2;P2;SDS_P1;SDS_P2;PMS_P1;PMS_P2;Temp;Humidity;BMP_temperature;BMP_pressure;BME280_temperature;BME280_humidity;BME280_pressure;Samples;Min_cycle;Max_cycle;Signal;HPM_P1;HPM_P2
2022/12/28 00:00:00;;;;;;;;;;;;;;;;;;5011854;28;1974;-73
2022/12/28 00:02:26;;;;;;;;;;;;;;;;;;5026224;28;1135;-73
2022/12/28 00:04:54;;;;;;;;;;;;;;;;;;5011502;28;779;-73
2022/12/28 00:07:20;;;;;;;;;;;;;;;;;;5011573;28;1111;-72
2022/12/28 00:09:46;;;;;;;;;;;;;;;;;;5011517;28;1399;-73
2022/12/28 00:12:13;;;;;;;;;;;;;;;;;;4997974;28;992;-73
2022/12/28 00:14:39;;;;;;;;;;;;;;;;;;4992262;28;1108;-72
2022/12/28 00:17:05;;;;;;;;;;;;;;;;;;5007376;28;1199;-72
2022/12/28 00:19:31;;;;;;;;;;;;;;;;;;5007040;28;1979;-72
2022/12/28 00:21:59;;;;;;;;;;;;;;;;;;5003182;28;1498;-69
2022/12/28 00:24:25;;;;;;;;;;;;;;;;;;5006853;28;1474;-73
2022/12/28 00:26:51;;;;;;;;;;;;;;;;;;4991858;28;675;-72
2022/12/28 00:29:18;;;;;;;;;;;;;;;;;;4992026;28;775;-72
2022/12/28 00:31:44;;;;;;;;;;;;;;;;;;5006367;28;1400;-72
2022/12/28 00:34:11;;;;;;;;;;;;;;;;;;5006960;28;1155;-72
2022/12/28 00:36:37;;;;;;;;;;;;;;;;;;5006963;28;1186;-72
2022/12/28 00:39:05;;;;;;;;;;;;;;;;;;5006987;28;1603;-73
2022/12/28 00:41:33;;;;;;;;;;;;;;;;;;4989548;28;1304;-72
2022/12/28 00:44:00;;;;;;;;;;;;;;;;;;4990495;28;1187;-72
2022/12/28 00:46:26;;;;;;;;;;;;;;;;;;4991721;28;754;-72
2022/12/28 00:48:52;;;;;;;;;;;;;;;;;;4991848;28;1064;-72
2022/12/28 00:51:19;;;;;;;;;;;;;;;;;;4990901;28;1326;-73
2022/12/28 00:53:45;;;;;;;;;;;;;;;;;;5006769;28;1374;-72
2022/12/28 00:56:14;;;;;;;;;;;;;;;;;;4991691;28;1052;-72
2022/12/28 00:58:40;;;;;;;;;;;;;;;;;;5006452;28;1128;-72
2022/12/28 01:01:10;;;;;;;;;;;;;;;;;;4990244;28;1926;-72
2022/12/28 01:03:36;;;;;;;;;;;;;;;;;;4990028;28;1635;-72
2022/12/28 01:06:04;;;;;;;;;;;;;;;;;;5006749;28;1226;-73
2022/12/28 01:08:30;;;;;;;;;;;;;;;;;;5006738;28;1189;-72
2022/12/28 01:10:56;;;;;;;;;;;;;;;;;;5006625;28;1354;-71
2022/12/28 01:13:24;;;;;;;;;;;;;;;;;;4989516;28;1408;-72
2022/12/28 01:15:50;;;;;;;;;;;;;;;;;;4990312;28;1275;-73
2022/12/28 01:18:16;;;;;;;;;;;;;;;;;;4991719;28;1259;-72
2022/12/28 01:20:43;;;;;;;;;;;;;;;;;;4993786;28;1985;-73
2022/12/28 01:23:09;;;;;;;;;;;;;;;;;;4994599;28;890;-73
2022/12/28 01:25:37;;;;;;;;;;;;;;;;;;4994020;28;1302;-72
2022/12/28 01:28:04;;;;;;;;;;;;;;;;;;4994215;28;1208;-73
2022/12/28 01:30:32;;;;;;;;;;;;;;;;;;4995049;28;1302;-72
2022/12/28 01:32:58;;;;;;;;;;;;;;;;;;4994363;28;1118;-73
2022/12/28 01:35:24;;;;;;;;;;;;;;;;;;4993357;28;1155;-72
2022/12/28 01:37:51;;;;;;;;;;;;;;;;;;4995039;28;814;-73
2022/12/28 01:40:17;;;;;;;;;;;;;;;;;;5009931;28;1978;-72
2022/12/28 01:42:43;;;;;;;;;;;;;;;;;;4993099;28;1355;-72
2022/12/28 01:45:14;;;;;;;;;;;;;;;;;;5009415;28;1123;-72
2022/12/28 01:47:41;;;;;;;;;;;;;;;;;;4994932;28;925;-73
2022/12/28 01:50:08;;;;;;;;;;;;;;;;;;4993289;28;1407;-71
2022/12/28 01:52:35;;;;;;;;;;;;;;;;;;4993670;28;766;-73
2022/12/28 01:55:03;;;;;;;;;;;;;;;;;;5010069;28;1273;-72
2022/12/28 01:57:30;;;;;;;;;;;;;;;;;;5009524;28;1166;-73
2022/12/28 01:59:56;;;;;;;;;;;;;;;;;;5011870;28;1973;-71
2022/12/28 02:02:23;;;;;;;;;;;;;;;;;;5013306;28;840;-73
2022/12/28 02:04:50;;;;;;;;;;;;;;;;;;5014136;28;1091;-73
2022/12/28 02:07:19;;;;;;;;;;;;;;;;;;5029090;28;831;-73
2022/12/28 02:09:45;;;;;;;;;;;;;;;;;;5013835;28;1257;-73
2022/12/28 02:12:13;;;;;;;;;;;;;;;;;;5013135;28;815;-72
2022/12/28 02:14:40;;;;;;;;;;;;;;;;;;5029138;28;1229;-71
2022/12/28 02:17:07;;;;;;;;;;;;;;;;;;5011700;28;1382;-72
2022/12/28 02:19:36;;;;;;;;;;;;;;;;;;5028980;28;1591;-72
2022/12/28 02:22:08;;;;;;;;;;;;;;;;;;5012968;28;2072;-72
2022/12/28 02:24:45;;;;;;;;;;;;;;;;;;5013738;28;770;-70
2022/12/28 02:27:13;;;;;;;;;;;;;;;;;;5013373;28;961;-69
2022/12/28 02:29:54;;;;;;;;;;;;;;;;;;5028613;28;1312;-72
2022/12/28 02:32:27;;;;;;;;;;;;;;;;;;4995635;28;1313;-73
2022/12/28 02:34:56;;;;;;;;;;;;;;;;;;5028817;28;1004;-72
2022/12/28 02:37:22;;;;;;;;;;;;;;;;;;5012175;28;1118;-69
2022/12/28 02:39:50;;;;;;;;;;;;;;;;;;5012336;28;1910;-73
2022/12/28 02:42:16;;;;;;;;;;;;;;;;;;5028011;28;1299;-73
2022/12/28 02:50:13;;;;;;;;;;;;;;;;;;5012908;28;1430;-73
2022/12/28 02:52:49;;;;;;;;;;;;;;;;;;5013870;28;1067;-72
2022/12/28 02:58:08;;;;;;;;;;;;;;;;;;5006962;28;1285;-71
2022/12/28 03:00:37;;;;;;;;;;;;;;;;;;4979742;28;1907;-72
2022/12/28 03:03:09;;;;;;;;;;;;;;;;;;4972127;28;1293;-72
2022/12/28 03:08:26;;;;;;;;;;;;;;;;;;4959094;28;1299;-72
2022/12/28 03:10:52;;;;;;;;;;;;;;;;;;4991978;28;1532;-72
2022/12/28 03:16:05;;;;;;;;;;;;;;;;;;4993327;28;993;-72
2022/12/28 03:32:31;;;;;;;;;;;;;;;;;;5007247;28;1423;-73
2022/12/28 03:34:58;;;;;;;;;;;;;;;;;;5007919;28;1362;-72
2022/12/28 03:37:25;;;;;;;;;;;;;;;;;;4991391;28;1342;-72
2022/12/28 03:39:56;;;;;;;;;;;;;;;;;;4990860;28;1464;-73
2022/12/28 03:45:10;;;;;;;;;;;;;;;;;;5007726;28;1629;-73
2022/12/28 03:47:36;;;;;;;;;;;;;;;;;;4991559;28;1196;-71
2022/12/28 03:50:04;;;;;;;;;;;;;;;;;;4991133;28;2167;-70
2022/12/28 03:52:33;;;;;;;;;;;;;;;;;;4991714;28;841;-73
2022/12/28 03:55:02;;;;;;;;;;;;;;;;;;4991230;28;1185;-73
2022/12/28 03:57:28;;;;;;;;;;;;;;;;;;5007564;28;1645;-69
2022/12/28 03:59:55;;;;;;;;;;;;;;;;;;4991174;28;1399;-71
2022/12/28 04:02:25;;;;;;;;;;;;;;;;;;4989995;28;1923;-73
2022/12/28 04:04:51;;;;;;;;;;;;;;;;;;4991001;28;1472;-73
2022/12/28 04:07:19;;;;;;;;;;;;;;;;;;4991141;28;1193;-71
2022/12/28 04:09:48;;;;;;;;;;;;;;;;;;4990441;28;1428;-73
2022/12/28 04:12:14;;;;;;;;;;;;;;;;;;5009679;28;1614;-73
2022/12/28 04:15:13;;;;;;;;;;;;;;;;;;4999519;28;1238;-72
2022/12/28 04:17:39;;;;;;;;;;;;;;;;;;5027319;28;1210;-72
2022/12/28 04:20:06;;;;;;;;;;;;;;;;;;5010210;28;1431;-72
2022/12/28 04:22:34;;;;;;;;;;;;;;;;;;5063204;23;3517;-76
2022/12/28 04:25:00;;;;;;;;;;;;;;;;;;5071431;28;1152;-76
2022/12/28 04:27:26;;;;;;;;;;;;;;;;;;5070172;28;1318;-75
2022/12/28 04:29:57;;;;;;;;;;;;;;;;;;5070081;28;1319;-76
2022/12/28 04:32:24;;;;;;;;;;;;;;;;;;5081146;28;1352;-76
2022/12/28 04:34:50;;;;;;;;;;;;;;;;;;5091858;28;809;-75
2022/12/28 04:37:18;;;;;;;;;;;;;;;;;;5100470;28;1665;-74
2022/12/28 04:39:45;;;;;;;;;;;;;;;;;;5073801;28;1317;-76
2022/12/28 04:42:11;;;;;;;;;;;;;;;;;;5090512;28;1922;-74
2022/12/28 04:44:38;;;;;;;;;;;;;;;;;;5054096;28;1644;-73
2022/12/28 04:47:04;;;;;;;;;;;;;;;;;;5046076;28;1300;-74
2022/12/28 04:49:31;;;;;;;;;;;;;;;;;;5026785;28;881;-74
2022/12/28 04:51:57;;;;;;;;;;;;;;;;;;5039300;28;1467;-73
2022/12/28 04:54:24;;;;;;;;;;;;;;;;;;5030627;28;1031;-73
2022/12/28 04:56:51;;;;;;;;;;;;;;;;;;5029011;28;1602;-73
2022/12/28 04:59:18;;;;;;;;;;;;;;;;;;5026451;28;1473;-73
2022/12/28 05:01:44;;;;;;;;;;;;;;;;;;5024583;28;2020;-73
2022/12/28 05:04:11;;;;;;;;;;;;;;;;;;5028661;28;988;-73
2022/12/28 05:06:37;;;;;;;;;;;;;;;;;;5008454;28;1239;-73
2022/12/28 05:09:04;;;;;;;;;;;;;;;;;;5011688;28;968;-73
2022/12/28 05:11:30;;;;;;;;;;;;;;;;;;5026517;28;1545;-73
2022/12/28 05:13:58;;;;;;;;;;;;;;;;;;5032978;28;846;-74
2022/12/28 05:16:26;;;;;;;;;;;;;;;;;;5022901;28;802;-74
2022/12/28 05:18:52;;;;;;;;;;;;;;;;;;5069618;28;813;-73
2022/12/28 05:21:19;;;;;;;;;;;;;;;;;;5039339;28;1937;-74
2022/12/28 05:23:46;;;;;;;;;;;;;;;;;;5030192;28;889;-74
2022/12/28 05:26:13;;;;;;;;;;;;;;;;;;5006330;28;1107;-73
2022/12/28 05:28:39;;;;;;;;;;;;;;;;;;5017849;28;1554;-74
2022/12/28 05:31:08;;;;;;;;;;;;;;;;;;5041810;28;1378;-73
2022/12/28 05:33:35;;;;;;;;;;;;;;;;;;5022286;28;831;-73
2022/12/28 05:36:02;;;;;;;;;;;;;;;;;;5047312;28;1414;-73
2022/12/28 05:38:28;;;;;;;;;;;;;;;;;;5086323;28;1216;-72
2022/12/28 05:40:54;;;;;;;;;;;;;;;;;;5075989;28;1919;-73
2022/12/28 05:43:21;;;;;;;;;;;;;;;;;;5085552;28;1399;-74
2022/12/28 05:45:47;;;;;;;;;;;;;;;;;;5075144;28;1620;-73
2022/12/28 05:48:14;;;;;;;;;;;;;;;;;;5084050;28;1401;-73
2022/12/28 05:50:40;;;;;;;;;;;;;;;;;;5098057;28;1216;-73
2022/12/28 05:53:07;;;;;;;;;;;;;;;;;;5073038;28;1321;-73
2022/12/28 05:55:33;;;;;;;;;;;;;;;;;;5073969;28;1068;-73
2022/12/28 05:57:59;;;;;;;;;;;;;;;;;;5073830;28;1068;-73
2022/12/28 06:00:25;;;;;;;;;;;;;;;;;;5073959;28;941;-73
2022/12/28 06:02:51;;;;;;;;;;;;;;;;;;5072442;28;1977;-73
2022/12/28 06:05:19;;;;;;;;;;;;;;;;;;5088789;28;1464;-73
2022/12/28 06:07:45;;;;;;;;;;;;;;;;;;5095035;28;1126;-73
2022/12/28 06:10:11;;;;;;;;;;;;;;;;;;5094101;28;1071;-73
2022/12/28 06:12:38;;;;;;;;;;;;;;;;;;5093923;28;1412;-73
2022/12/28 06:15:04;;;;;;;;;;;;;;;;;;5093712;28;1063;-73
2022/12/28 06:17:30;;;;;;;;;;;;;;;;;;5093554;28;1075;-73
2022/12/28 06:19:57;;;;;;;;;;;;;;;;;;5094682;28;942;-73
2022/12/28 06:22:24;;;;;;;;;;;;;;;;;;5094031;28;1910;-73
2022/12/28 06:24:50;;;;;;;;;;;;;;;;;;5095075;28;1059;-73
2022/12/28 06:27:17;;;;;;;;;;;;;;;;;;5093509;28;1246;-73
2022/12/28 06:29:43;;;;;;;;;;;;;;;;;;5095087;28;1085;-73
2022/12/28 06:32:09;;;;;;;;;;;;;;;;;;5092802;28;1387;-73
2022/12/28 06:34:35;;;;;;;;;;;;;;;;;;5090838;28;1434;-73
2022/12/28 06:37:03;;;;;;;;;;;;;;;;;;5065262;28;1289;-74
2022/12/28 06:39:30;;;;;;;;;;;;;;;;;;5089220;28;1130;-73
2022/12/28 06:41:56;;;;;;;;;;;;;;;;;;5093488;28;1914;-73
2022/12/28 06:44:22;;;;;;;;;;;;;;;;;;5093675;28;951;-74
2022/12/28 06:46:49;;;;;;;;;;;;;;;;;;5075922;28;1126;-74
2022/12/28 06:49:15;;;;;;;;;;;;;;;;;;5084658;28;1635;-74
2022/12/28 06:51:41;;;;;;;;;;;;;;;;;;5093456;28;1311;-73
2022/12/28 06:54:07;;;;;;;;;;;;;;;;;;5093669;28;979;-73
2022/12/28 06:56:36;;;;;;;;;;;;;;;;;;5092324;28;1370;-73
2022/12/28 06:59:03;;;;;;;;;;;;;;;;;;5085724;28;1038;-73
2022/12/28 07:01:29;;;;;;;;;;;;;;;;;;5093261;28;1902;-73
2022/12/28 07:03:56;;;;;;;;;;;;;;;;;;5093308;28;1286;-73
2022/12/28 07:06:23;;;;;;;;;;;;;;;;;;5085465;28;1399;-73
2022/12/28 07:08:49;;;;;;;;;;;;;;;;;;5089156;28;1013;-74
2022/12/28 07:11:16;;;;;;;;;;;;;;;;;;5092842;28;1304;-75
2022/12/28 07:13:44;;;;;;;;;;;;;;;;;;5092987;28;1191;-74
2022/12/28 07:16:11;;;;;;;;;;;;;;;;;;5091830;28;1602;-74
2022/12/28 07:18:37;;;;;;;;;;;;;;;;;;5093996;28;1406;-75
2022/12/28 07:21:04;;;;;;;;;;;;;;;;;;5108594;28;1422;-73
2022/12/28 07:23:30;;;;;;;;;;;;;;;;;;5072484;28;1973;-74
2022/12/28 07:25:57;;;;;;;;;;;;;;;;;;5093614;28;925;-74
2022/12/28 07:28:23;;;;;;;;;;;;;;;;;;5070508;28;1403;-73
2022/12/28 07:30:50;;;;;;;;;;;;;;;;;;5089188;28;1134;-73
2022/12/28 07:33:16;;;;;;;;;;;;;;;;;;5077466;28;1436;-74
2022/12/28 07:35:43;;;;;;;;;;;;;;;;;;5073192;28;1398;-73
2022/12/28 07:38:09;;;;;;;;;;;;;;;;;;5083724;28;1433;-74
2022/12/28 07:40:35;;;;;;;;;;;;;;;;;;5084474;28;1417;-75
2022/12/28 07:43:01;;;;;;;;;;;;;;;;;;5087471;28;1981;-74
2022/12/28 07:45:27;;;;;;;;;;;;;;;;;;5085151;28;1621;-74
2022/12/28 07:47:55;;;;;;;;;;;;;;;;;;5075005;28;1151;-74
2022/12/28 07:50:21;;;;;;;;;;;;;;;;;;5091800;28;1535;-74
2022/12/28 07:52:47;;;;;;;;;;;;;;;;;;5092101;28;1395;-75
2022/12/28 07:55:14;;;;;;;;;;;;;;;;;;5093070;28;900;-76
2022/12/28 07:57:40;;;;;;;;;;;;;;;;;;5077818;28;1717;-76
2022/12/28 08:00:07;;;;;;;;;;;;;;;;;;5079764;28;1575;-72
2022/12/28 08:02:38;;;;;;;;;;;;;;;;;;5080255;28;1973;-73
2022/12/28 08:05:06;;;;;;;;;;;;;;;;;;5072390;28;1114;-73
2022/12/28 08:07:33;;;;;;;;;;;;;;;;;;5088069;28;1382;-76
2022/12/28 08:09:59;;;;;;;;;;;;;;;;;;5100623;28;1369;-77
2022/12/28 08:12:25;;;;;;;;;;;;;;;;;;5077704;28;1479;-74
2022/12/28 08:14:51;;;;;;;;;;;;;;;;;;5082415;28;1643;-74
2022/12/28 08:17:18;;;;;;;;;;;;;;;;;;5079143;28;1651;-74
2022/12/28 08:19:44;;;;;;;;;;;;;;;;;;5071136;28;1372;-73
2022/12/28 08:22:11;;;;;;;;;;;;;;;;;;5090060;28;1902;-73
2022/12/28 08:24:37;;;;;;;;;;;;;;;;;;5092363;28;1584;-72
2022/12/28 08:27:04;;;;;;;;;;;;;;;;;;5087558;28;1353;-72
2022/12/28 08:29:30;;;;;;;;;;;;;;;;;;5091642;28;1391;-72
2022/12/28 08:31:56;;;;;;;;;;;;;;;;;;5091010;28;1364;-72
2022/12/28 08:34:25;;;;;;;;;;;;;;;;;;5079506;28;1060;-73
2022/12/28 08:36:52;;;;;;;;;;;;;;;;;;5071671;28;1168;-73
2022/12/28 08:39:20;;;;;;;;;;;;;;;;;;5079056;28;1409;-72
2022/12/28 08:41:46;;;;;;;;;;;;;;;;;;5064936;28;1969;-75
2022/12/28 08:44:12;;;;;;;;;;;;;;;;;;5089973;28;1715;-75
2022/12/28 08:46:40;;;;;;;;;;;;;;;;;;5085342;28;2008;-73
2022/12/28 08:49:06;;;;;;;;;;;;;;;;;;5095008;28;1358;-73
2022/12/28 08:51:33;;;;;;;;;;;;;;;;;;5062794;28;1479;-73
2022/12/28 08:53:59;;;;;;;;;;;;;;;;;;5090471;28;1365;-74
2022/12/28 08:56:28;;;;;;;;;;;;;;;;;;5091532;28;1422;-74
2022/12/28 08:58:54;;;;;;;;;;;;;;;;;;5086488;28;1323;-73
2022/12/28 09:01:22;;;;;;;;;;;;;;;;;;5085794;28;1426;-75
2022/12/28 09:03:49;;;;;;;;;;;;;;;;;;5086150;28;1918;-74
2022/12/28 09:06:15;;;;;;;;;;;;;;;;;;5075436;28;1543;-75
2022/12/28 09:08:42;;;;;;;;;;;;;;;;;;5089693;28;1300;-75
2022/12/28 09:11:09;;;;;;;;;;;;;;;;;;5071163;28;1485;-74
2022/12/28 09:13:37;;;;;;;;;;;;;;;;;;5071936;28;2191;-73
2022/12/28 09:16:04;;;;;;;;;;;;;;;;;;5089992;28;1545;-73
2022/12/28 09:18:31;;;;;;;;;;;;;;;;;;5090232;28;1418;-73
2022/12/28 09:20:57;;;;;;;;;;;;;;;;;;5080322;28;1161;-73
2022/12/28 09:23:23;;;;;;;;;;;;;;;;;;5090526;28;1975;-73
2022/12/28 09:25:49;;;;;;;;;;;;;;;;;;5088560;28;1446;-72
2022/12/28 09:28:16;;;;;;;;;;;;;;;;;;5082411;28;1137;-73
2022/12/28 09:30:43;;;;;;;;;;;;;;;;;;5090848;28;782;-73
2022/12/28 09:36:08;;;;;;;;;;;;;;;;;;5007030;28;1750;-73
2022/12/28 09:38:34;;;;;;;;;;;;;;;;;;5009037;28;1413;-74
2022/12/28 09:41:01;;;;;;;;;;;;;;;;;;5023333;28;1512;-74
2022/12/28 09:43:27;;;;;;;;;;;;;;;;;;5073772;28;1985;-75
2022/12/28 09:45:54;;;;;;;;;;;;;;;;;;5090673;28;1850;-75
2022/12/28 09:48:22;;;;;;;;;;;;;;;;;;5093925;28;1374;-73
2022/12/28 09:50:48;;;;;;;;;;;;;;;;;;5082525;28;1212;-73
2022/12/28 09:53:19;;;;;;;;;;;;;;;;;;5073735;28;1310;-73
2022/12/28 09:55:48;;;;;;;;;;;;;;;;;;5074303;28;1063;-73
2022/12/28 09:58:15;;;;;;;;;;;;;;;;;;5071552;28;1450;-73
2022/12/28 10:00:43;;;;;;;;;;;;;;;;;;5084084;28;1457;-75
2022/12/28 10:03:14;;;;;;;;;;;;;;;;;;5089609;28;1914;-75
2022/12/28 10:05:40;;;;;;;;;;;;;;;;;;5094053;28;1147;-73
2022/12/28 10:08:09;;;;;;;;;;;;;;;;;;5084901;28;1375;-74
2022/12/28 10:10:35;;;;;;;;;;;;;;;;;;5092939;28;1420;-72
2022/12/28 10:13:02;;;;;;;;;;;;;;;;;;5084923;28;1446;-74
2022/12/28 10:15:28;;;;;;;;;;;;;;;;;;5092317;28;1546;-73
2022/12/28 10:17:54;;;;;;;;;;;;;;;;;;5091701;28;1196;-72
2022/12/28 10:20:22;;;;;;;;;;;;;;;;;;5092679;28;1494;-74
2022/12/28 10:22:50;;;;;;;;;;;;;;;;;;5090394;28;1961;-75
2022/12/28 10:25:17;;;;;;;;;;;;;;;;;;5073590;28;1739;-73
2022/12/28 10:27:43;;;;;;;;;;;;;;;;;;5087665;28;1395;-73
2022/12/28 10:30:14;;;;;;;;;;;;;;;;;;5073513;28;1867;-76
2022/12/28 10:32:47;;;;;;;;;;;;;;;;;;5091907;28;1789;-74
2022/12/28 10:35:16;;;;;;;;;;;;;;;;;;5092175;28;1445;-74
2022/12/28 10:37:43;;;;;;;;;;;;;;;;;;5085911;28;1898;-74
2022/12/28 10:40:16;;;;;;;;;;;;;;;;;;5073952;28;1707;-74
2022/12/28 10:42:45;;;;;;;;;;;;;;;;;;5090412;28;1981;-74
2022/12/28 10:45:16;;;;;;;;;;;;;;;;;;5080401;28;1156;-73
2022/12/28 10:47:43;;;;;;;;;;;;;;;;;;5096334;28;1551;-73
2022/12/28 10:50:33;;;;;;;;;;;;;;;;;;5084340;28;1647;-74
2022/12/28 10:53:01;;;;;;;;;;;;;;;;;;5089984;22;4044;-73
2022/12/28 10:55:28;;;;;;;;;;;;;;;;;;5056438;28;1166;-72
2022/12/28 10:57:54;;;;;;;;;;;;;;;;;;5045246;28;1494;-72
2022/12/28 11:00:21;;;;;;;;;;;;;;;;;;5060453;28;1420;-71
2022/12/28 11:02:47;;;;;;;;;;;;;;;;;;5071882;28;1972;-72
2022/12/28 11:05:17;;;;;;;;;;;;;;;;;;5053730;28;1165;-74
2022/12/28 11:07:44;;;;;;;;;;;;;;;;;;5034408;28;1226;-72
2022/12/28 11:10:15;;;;;;;;;;;;;;;;;;5059595;28;1487;-73
2022/12/28 11:12:41;;;;;;;;;;;;;;;;;;5022006;28;1493;-73
2022/12/28 11:15:08;;;;;;;;;;;;;;;;;;5042584;28;1379;-71
2022/12/28 11:17:36;;;;;;;;;;;;;;;;;;5061394;28;1233;-71
2022/12/28 11:20:03;;;;;;;;;;;;;;;;;;5069682;28;1261;-71
2022/12/28 11:22:30;;;;;;;;;;;;;;;;;;5072089;28;1985;-73
2022/12/28 11:24:56;;;;;;;;;;;;;;;;;;5073006;28;1132;-74
2022/12/28 11:27:24;;;;;;;;;;;;;;;;;;5052454;28;1219;-73
2022/12/28 11:29:51;;;;;;;;;;;;;;;;;;5048586;28;1776;-73
2022/12/28 11:32:18;;;;;;;;;;;;;;;;;;5054087;28;1721;-74
2022/12/28 11:34:44;;;;;;;;;;;;;;;;;;5051218;28;2058;-74
2022/12/28 11:37:11;;;;;;;;;;;;;;;;;;5033795;28;1504;-73
2022/12/28 11:39:44;;;;;;;;;;;;;;;;;;5053150;28;1603;-73
2022/12/28 11:42:10;;;;;;;;;;;;;;;;;;5051306;28;1407;-73
2022/12/28 11:44:51;;;;;;;;;;;;;;;;;;5051019;28;1981;-74
2022/12/28 11:47:21;;;;;;;;;;;;;;;;;;5056150;28;834;-73
2022/12/28 11:49:48;;;;;;;;;;;;;;;;;;5051901;28;763;-73
2022/12/28 11:52:44;;;;;;;;;;;;;;;;;;5054486;28;1544;-74
2022/12/28 11:55:32;;;;;;;;;;;;;;;;;;5056226;28;1127;-74
2022/12/28 11:57:58;;;;;;;;;;;;;;;;;;5046863;28;1329;-71
2022/12/28 12:00:43;;;;;;;;;;;;;;;;;;5070961;28;838;-74
2022/12/28 12:03:10;;;;;;;;;;;;;;;;;;5070464;28;1973;-73
2022/12/28 12:05:50;;;;;;;;;;;;;;;;;;5071273;28;1123;-74
2022/12/28 12:08:34;;;;;;;;;;;;;;;;;;5071278;28;707;-74
2022/12/28 12:11:16;;;;;;;;;;;;;;;;;;5070471;28;877;-74
2022/12/28 12:13:43;;;;;;;;;;;;;;;;;;5071811;28;1361;-74
2022/12/28 12:16:15;;;;;;;;;;;;;;;;;;5041712;28;1503;-74
2022/12/28 12:18:45;;;;;;;;;;;;;;;;;;5014802;28;1266;-74
2022/12/28 12:21:14;;;;;;;;;;;;;;;;;;5058807;28;1061;-73
2022/12/28 12:23:41;;;;;;;;;;;;;;;;;;5072213;28;1910;-73
2022/12/28 12:26:15;;;;;;;;;;;;;;;;;;5054452;28;1190;-73
2022/12/28 12:28:43;;;;;;;;;;;;;;;;;;5072565;28;826;-73
2022/12/28 12:31:11;;;;;;;;;;;;;;;;;;5072192;28;1103;-73
2022/12/28 12:33:37;;;;;;;;;;;;;;;;;;5072388;28;1321;-74
2022/12/28 12:36:08;;;;;;;;;;;;;;;;;;5072922;28;1548;-74
2022/12/28 12:38:39;;;;;;;;;;;;;;;;;;5071173;28;1055;-73
2022/12/28 12:41:09;;;;;;;;;;;;;;;;;;5071146;28;611;-74
2022/12/28 12:43:39;;;;;;;;;;;;;;;;;;5070911;28;2010;-73
2022/12/28 12:46:26;;;;;;;;;;;;;;;;;;5071054;28;929;-73
2022/12/28 12:49:00;;;;;;;;;;;;;;;;;;5064412;28;1164;-73
2022/12/28 12:51:28;;;;;;;;;;;;;;;;;;5070392;28;1012;-74
2022/12/28 12:54:07;;;;;;;;;;;;;;;;;;5071042;28;1341;-73
2022/12/28 12:56:38;;;;;;;;;;;;;;;;;;5071005;28;1020;-73
2022/12/28 12:59:10;;;;;;;;;;;;;;;;;;5070932;28;1068;-74
2022/12/28 13:01:39;;;;;;;;;;;;;;;;;;5070605;28;1060;-73
2022/12/28 13:04:06;;;;;;;;;;;;;;;;;;5070501;28;1914;-73
2022/12/28 13:06:34;;;;;;;;;;;;;;;;;;5053408;28;1406;-73
2022/12/28 13:09:01;;;;;;;;;;;;;;;;;;5071688;28;712;-74
2022/12/28 13:11:27;;;;;;;;;;;;;;;;;;5070730;28;1056;-74
2022/12/28 13:13:53;;;;;;;;;;;;;;;;;;5041782;28;1420;-74
2022/12/28 13:16:20;;;;;;;;;;;;;;;;;;5043469;28;1264;-74
2022/12/28 13:18:53;;;;;;;;;;;;;;;;;;5049803;28;1179;-74
2022/12/28 13:21:20;;;;;;;;;;;;;;;;;;5035924;28;1149;-74
2022/12/28 13:23:48;;;;;;;;;;;;;;;;;;5038276;28;1989;-73
2022/12/28 13:26:15;;;;;;;;;;;;;;;;;;5035017;28;1076;-73
2022/12/28 13:28:44;;;;;;;;;;;;;;;;;;5034531;28;1288;-74
2022/12/28 13:31:15;;;;;;;;;;;;;;;;;;5034714;28;1120;-74
2022/12/28 13:33:41;;;;;;;;;;;;;;;;;;5034437;28;1406;-73
2022/12/28 13:36:11;;;;;;;;;;;;;;;;;;5035473;28;882;-74
2022/12/28 13:38:37;;;;;;;;;;;;;;;;;;5034650;28;1161;-74
2022/12/28 13:41:05;;;;;;;;;;;;;;;;;;5035154;28;839;-73
2022/12/28 13:43:49;;;;;;;;;;;;;;;;;;5035542;28;1969;-74
2022/12/28 13:46:15;;;;;;;;;;;;;;;;;;5035977;28;2031;-73
2022/12/28 13:48:42;;;;;;;;;;;;;;;;;;5056364;28;1342;-73
2022/12/28 13:51:08;;;;;;;;;;;;;;;;;;5061160;28;1087;-74
2022/12/28 13:53:34;;;;;;;;;;;;;;;;;;5068616;28;2018;-74
2022/12/28 13:56:01;;;;;;;;;;;;;;;;;;5064982;28;2102;-74
2022/12/28 13:58:30;;;;;;;;;;;;;;;;;;5073936;28;1805;-74
2022/12/28 14:00:56;;;;;;;;;;;;;;;;;;5061132;28;1746;-76
2022/12/28 14:03:22;;;;;;;;;;;;;;;;;;5061515;28;1913;-74
2022/12/28 14:05:49;;;;;;;;;;;;;;;;;;5056928;28;1132;-75
2022/12/28 14:08:15;;;;;;;;;;;;;;;;;;5074463;28;907;-75
2022/12/28 14:10:41;;;;;;;;;;;;;;;;;;5056499;28;1286;-74
2022/12/28 14:13:07;;;;;;;;;;;;;;;;;;5072940;28;1395;-74
2022/12/28 14:15:38;;;;;;;;;;;;;;;;;;5044711;28;1279;-74
2022/12/28 14:18:04;;;;;;;;;;;;;;;;;;5052575;28;1235;-74
2022/12/28 14:20:30;;;;;;;;;;;;;;;;;;5021193;28;1636;-74
2022/12/28 14:23:11;;;;;;;;;;;;;;;;;;5048148;28;1468;-74
2022/12/28 14:25:40;;;;;;;;;;;;;;;;;;5051926;28;1977;-74
2022/12/28 14:28:06;;;;;;;;;;;;;;;;;;5053988;28;1064;-74
2022/12/28 14:30:33;;;;;;;;;;;;;;;;;;5052553;28;1115;-74
2022/12/28 14:33:01;;;;;;;;;;;;;;;;;;5052458;28;1405;-74
2022/12/28 14:35:27;;;;;;;;;;;;;;;;;;5053901;28;1064;-74
2022/12/28 14:37:54;;;;;;;;;;;;;;;;;;5053929;28;834;-74
2022/12/28 14:40:25;;;;;;;;;;;;;;;;;;5053038;28;1069;-74
2022/12/28 14:42:51;;;;;;;;;;;;;;;;;;5052309;28;1337;-74
2022/12/28 14:45:21;;;;;;;;;;;;;;;;;;5053463;28;1969;-74
2022/12/28 14:47:47;;;;;;;;;;;;;;;;;;5053799;28;1064;-74
2022/12/28 14:50:16;;;;;;;;;;;;;;;;;;5055974;28;799;-74
2022/12/28 14:52:43;;;;;;;;;;;;;;;;;;5053875;28;1990;-74
2022/12/28 14:55:20;;;;;;;;;;;;;;;;;;5060579;28;1753;-74
2022/12/28 14:57:46;;;;;;;;;;;;;;;;;;5056347;28;1185;-74
2022/12/28 15:00:21;;;;;;;;;;;;;;;;;;5053151;28;990;-74
2022/12/28 15:02:48;;;;;;;;;;;;;;;;;;5052996;28;1393;-74
2022/12/28 15:05:33;;;;;;;;;;;;;;;;;;5052974;28;1910;-74
2022/12/28 15:08:00;;;;;;;;;;;;;;;;;;5053249;28;882;-74
2022/12/28 15:10:26;;;;;;;;;;;;;;;;;;5052747;28;1123;-74
2022/12/28 15:12:53;;;;;;;;;;;;;;;;;;5052674;28;1326;-74
2022/12/28 15:15:19;;;;;;;;;;;;;;;;;;5035043;28;1397;-74
2022/12/28 15:17:45;;;;;;;;;;;;;;;;;;5052470;28;1154;-74
2022/12/28 15:20:13;;;;;;;;;;;;;;;;;;5033289;28;1397;-75
2022/12/28 15:22:39;;;;;;;;;;;;;;;;;;5059013;28;1464;-75
2022/12/28 15:25:07;;;;;;;;;;;;;;;;;;5053501;28;1987;-74
2022/12/28 15:27:34;;;;;;;;;;;;;;;;;;5050431;28;1479;-75
2022/12/28 15:30:00;;;;;;;;;;;;;;;;;;5049262;28;1650;-75
2022/12/28 15:32:26;;;;;;;;;;;;;;;;;;5070072;28;1341;-74
2022/12/28 15:34:52;;;;;;;;;;;;;;;;;;5061741;28;1444;-73
2022/12/28 15:37:18;;;;;;;;;;;;;;;;;;5053597;28;1427;-74
2022/12/28 15:39:44;;;;;;;;;;;;;;;;;;5062642;28;1150;-73
2022/12/28 15:42:12;;;;;;;;;;;;;;;;;;5071004;28;1317;-74
2022/12/28 15:44:38;;;;;;;;;;;;;;;;;;5062460;28;1985;-73
2022/12/28 15:47:04;;;;;;;;;;;;;;;;;;5061365;28;1344;-73
2022/12/28 15:49:30;;;;;;;;;;;;;;;;;;5053545;28;1662;-73
2022/12/28 15:51:57;;;;;;;;;;;;;;;;;;5067919;28;1182;-74
2022/12/28 15:54:23;;;;;;;;;;;;;;;;;;5043797;28;1385;-74
2022/12/28 15:56:51;;;;;;;;;;;;;;;;;;4987064;28;1516;-77
2022/12/28 15:59:19;;;;;;;;;;;;;;;;;;4962821;28;1655;-76
2022/12/28 16:01:46;;;;;;;;;;;;;;;;;;4979388;28;1444;-75
2022/12/28 16:04:12;;;;;;;;;;;;;;;;;;4954703;28;1996;-74
2022/12/28 16:06:39;;;;;;;;;;;;;;;;;;4949045;28;1033;-73
2022/12/28 16:09:06;;;;;;;;;;;;;;;;;;4988371;28;1609;-72
2022/12/28 16:11:32;;;;;;;;;;;;;;;;;;5050268;28;1380;-72
2022/12/28 16:13:59;;;;;;;;;;;;;;;;;;5037283;28;1574;-72
2022/12/28 16:16:27;;;;;;;;;;;;;;;;;;5045384;28;1586;-71
2022/12/28 16:18:54;;;;;;;;;;;;;;;;;;5071255;28;1047;-72
2022/12/28 16:21:20;;;;;;;;;;;;;;;;;;5070259;28;1119;-72
2022/12/28 16:23:46;;;;;;;;;;;;;;;;;;5049341;28;1553;-72
2022/12/28 16:26:13;;;;;;;;;;;;;;;;;;5030552;28;1922;-71
2022/12/28 16:28:39;;;;;;;;;;;;;;;;;;5031097;28;1000;-71
2022/12/28 16:31:06;;;;;;;;;;;;;;;;;;5030722;28;1226;-72
2022/12/28 16:33:33;;;;;;;;;;;;;;;;;;5034128;28;1397;-72
2022/12/28 16:36:00;;;;;;;;;;;;;;;;;;5039030;28;1290;-72
2022/12/28 16:38:26;;;;;;;;;;;;;;;;;;5025977;28;1290;-72
2022/12/28 16:40:54;;;;;;;;;;;;;;;;;;5014008;28;1530;-71
2022/12/28 16:43:20;;;;;;;;;;;;;;;;;;5046166;28;1477;-72
2022/12/28 16:45:46;;;;;;;;;;;;;;;;;;5061673;28;1918;-72
2022/12/28 16:48:13;;;;;;;;;;;;;;;;;;5050970;28;1421;-72
2022/12/28 16:50:41;;;;;;;;;;;;;;;;;;5031045;28;1591;-73
2022/12/28 16:53:08;;;;;;;;;;;;;;;;;;4984489;28;1419;-72
2022/12/28 16:55:37;;;;;;;;;;;;;;;;;;4988003;28;921;-72
2022/12/28 16:58:04;;;;;;;;;;;;;;;;;;4963009;28;1181;-73
2022/12/28 17:00:30;;;;;;;;;;;;;;;;;;4985481;28;925;-75
2022/12/28 17:02:57;;;;;;;;;;;;;;;;;;4961765;28;1381;-72
2022/12/28 17:05:24;;;;;;;;;;;;;;;;;;4958210;28;2003;-73
2022/12/28 17:07:52;;;;;;;;;;;;;;;;;;4950870;28;966;-75
2022/12/28 17:10:18;;;;;;;;;;;;;;;;;;4968798;28;905;-77
2022/12/28 17:12:45;;;;;;;;;;;;;;;;;;4957285;28;1583;-76
2022/12/28 17:17:38;;;;;;;;;;;;;;;;;;4961179;28;1308;-73
2022/12/28 17:20:06;;;;;;;;;;;;;;;;;;4975809;28;1307;-73
2022/12/28 17:22:32;;;;;;;;;;;;;;;;;;4973322;28;955;-72
2022/12/28 17:25:01;;;;;;;;;;;;;;;;;;4967634;28;2001;-74
2022/12/28 17:27:27;;;;;;;;;;;;;;;;;;4945340;28;999;-71
2022/12/28 17:29:54;;;;;;;;;;;;;;;;;;4965616;28;1275;-71
2022/12/28 17:32:20;;;;;;;;;;;;;;;;;;4959076;28;1554;-72
2022/12/28 17:34:47;;;;;;;;;;;;;;;;;;4965392;28;969;-70
2022/12/28 17:37:13;;;;;;;;;;;;;;;;;;4964269;28;1820;-70
2022/12/28 17:39:40;;;;;;;;;;;;;;;;;;4944998;28;1137;-71
2022/12/28 17:42:08;;;;;;;;;;;;;;;;;;4976071;28;1529;-70
2022/12/28 17:44:34;;;;;;;;;;;;;;;;;;4984147;28;1957;-71